sensor_id;sensor_type;location;lat;lon;timestamp;P1;durP1;ratioP1;P2;durP2;ratioP2
21579;SDS011;10951;59.656;9.666;2022-12-29T00:01:59;0.10;;;0.10;;
21579;SDS011;10951;59.656;9.666;2022-12-29T00:04:25;0.13;;;0.13;;
21579;SDS011;10951;59.656;9.666;2022-12-29T00:06:53;0.10;;;0.10;;
21579;SDS011;10951;59.656;9.666;2022-12-29T00:09:20;0.13;;;0.13;;
21579;SDS011;10951;59.656;9.666;2022-12-29T00:11:47;1.20;;;0.73;;
21579;SDS011;10951;59.656;9.666;2022-12-29T00:14:16;0.10;;;0.10;;
21579;SDS011;10951;59.656;9.666;2022-12-29T00:17:02;0.17;;;0.17;;
21579;SDS011;10951;59.656;9.666;2022-12-29T00:19:29;0.10;;;0.10;;
21579;SDS011;10951;59.656;9.666;2022-12-29T00:22:14;0.10;;;0.10;;
21579;SDS011;10951;59.656;9.666;2022-12-29T00:25:00;0.10;;;0.10;;
21579;SDS011;10951;59.656;9.666;2022-12-29T00:27:47;0.10;;;0.10;;
21579;SDS011;10951;59.656;9.666;2022-12-29T00:30:33;1.00;;;0.98;;
21579;SDS011;10951;59.656;9.666;2022-12-29T00:33:21;1.38;;;1.27;;
21579;SDS011;10951;59.656;9.666;2022-12-29T00:36:12;0.88;;;0.88;;
21579;SDS011;10951;59.656;9.666;2022-12-29T00:39:01;0.10;;;0.10;;
21579;SDS011;10951;59.656;9.666;2022-12-29T00:41:52;0.10;;;0.10;;
21579;SDS011;10951;59.656;9.666;2022-12-29T00:44:37;0.10;;;0.10;;
21579;SDS011;10951;59.656;9.666;2022-12-29T00:47:04;0.30;;;0.30;;
21579;SDS011;10951;59.656;9.666;2022-12-29T00:49:31;0.10;;;0.10;;
21579;SDS011;10951;59.656;9.666;2022-12-29T00:52:06;0.10;;;0.10;;
21579;SDS011;10951;59.656;9.666;2022-12-29T00:54:36;0.28;;;0.28;;
21579;SDS011;10951;59.656;9.666;2022-12-29T00:57:05;0.43;;;0.43;;
21579;SDS011;10951;59.656;9.666;2022-12-29T00:59:37;0.10;;;0.10;;
21579;SDS011;10951;59.656;9.666;2022-12-29T01:02:05;0.10;;;0.10;;
21579;SDS011;10951;59.656;9.666;2022-12-29T01:04:32;0.10;;;0.10;;
21579;SDS011;10951;59.656;9.666;2022-12-29T01:07:00;0.10;;;0.10;;
21579;SDS011;10951;59.656;9.666;2022-12-29T01:09:27;0.10;;;0.10;;
21579;SDS011;10951;59.656;9.666;2022-12-29T01:12:13;0.10;;;0.10;;
21579;SDS011;10951;59.656;9.666;2022-12-29T01:14:40;0.10;;;0.10;;
21579;SDS011;10951;59.656;9.666;2022-12-29T01:17:07;0.10;;;0.10;;
21579;SDS011;10951;59.656;9.666;2022-12-29T01:19:34;0.10;;;0.10;;
21579;SDS011;10951;59.656;9.666;2022-12-29T01:22:00;0.10;;;0.10;;
21579;SDS011;10951;59.656;9.666;2022-12-29T01:24:27;0.10;;;0.10;;
21579;SDS011;10951;59.656;9.666;2022-12-29T01:26:54;0.10;;;0.10;;
21579;SDS011;10951;59.656;9.666;2022-12-29T01:29:22;0.10;;;0.10;;
21579;SDS011;10951;59.656;9.666;2022-12-29T01:31:48;0.10;;;0.10;;
21579;SDS011;10951;59.656;9.666;2022-12-29T01:34:16;0.10;;;0.10;;
21579;SDS011;10951;59.656;9.666;2022-12-29T01:36:44;0.10;;;0.10;;
21579;SDS011;10951;59.656;9.666;2022-12-29T01:39:12;0.10;;;0.10;;
21579;SDS011;10951;59.656;9.666;2022-12-29T01:47:10;0.10;;;0.10;;
21579;SDS011;10951;59.656;9.666;2022-12-29T01:49:37;0.10;;;0.10;;
21579;SDS011;10951;59.656;9.666;2022-12-29T01:52:05;0.10;;;0.10;;
21579;SDS011;10951;59.656;9.666;2022-12-29T01:54:38;0.10;;;0.10;;
21579;SDS011;10951;59.656;9.666;2022-12-29T01:57:13;0.10;;;0.10;;
21579;SDS011;10951;59.656;9.666;2022-12-29T01:59:46;0.32;;;0.32;;
21579;SDS011;10951;59.656;9.666;2022-12-29T02:02:26;0.10;;;0.10;;
21579;SDS011;10951;59.656;9.666;2022-12-29T02:04:58;0.10;;;0.10;;
21579;SDS011;10951;59.656;9.666;2022-12-29T02:07:31;0.10;;;0.10;;
21579;SDS011;10951;59.656;9.666;2022-12-29T02:09:58;0.10;;;0.10;;
21579;SDS011;10951;59.656;9.666;2022-12-29T02:12:28;0.00;;;0.00;;
21579;SDS011;10951;59.656;9.666;2022-12-29T02:14:56;0.10;;;0.10;;
21579;SDS011;10951;59.656;9.666;2022-12-29T02:26:24;0.10;;;0.10;;
21579;SDS011;10951;59.656;9.666;2022-12-29T02:40:27;0.10;;;0.10;;
21579;SDS011;10951;59.656;9.666;2022-12-29T02:43:01;0.10;;;0.10;;
21579;SDS011;10951;59.656;9.666;2022-12-29T02:51:02;0.10;;;0.10;;
21579;SDS011;10951;59.656;9.666;2022-12-29T02:53:44;0.38;;;0.38;;
21579;SDS011;10951;59.656;9.666;2022-12-29T02:56:31;0.10;;;0.10;;
21579;SDS011;10951;59.656;9.666;2022-12-29T02:58:58;1.65;;;1.17;;
21579;SDS011;10951;59.656;9.666;2022-12-29T03:05:03;0.10;;;0.10;;
21579;SDS011;10951;59.656;9.666;2022-12-29T03:08:02;0.10;;;0.10;;
21579;SDS011;10951;59.656;9.666;2022-12-29T03:11:12;0.10;;;0.10;;
21579;SDS011;10951;59.656;9.666;2022-12-29T03:14:42;0.10;;;0.10;;
21579;SDS011;10951;59.656;9.666;2022-12-29T03:17:13;0.10;;;0.10;;
21579;SDS011;10951;59.656;9.666;2022-12-29T03:20:06;0.10;;;0.10;;
21579;SDS011;10951;59.656;9.666;2022-12-29T03:22:39;0.10;;;0.10;;
21579;SDS011;10951;59.656;9.666;2022-12-29T03:25:15;0.10;;;0.10;;
21579;SDS011;10951;59.656;9.666;2022-12-29T03:27:49;0.10;;;0.10;;
21579;SDS011;10951;59.656;9.666;2022-12-29T03:30:22;0.10;;;0.10;;
21579;SDS011;10951;59.656;9.666;2022-12-29T03:32:58;0.10;;;0.10;;
21579;SDS011;10951;59.656;9.666;2022-12-29T03:35:30;0.10;;;0.10;;
21579;SDS011;10951;59.656;9.666;2022-12-29T03:38:09;0.10;;;0.10;;
21579;SDS011;10951;59.656;9.666;2022-12-29T03:40:44;0.10;;;0.10;;
21579;SDS011;10951;59.656;9.666;2022-12-29T03:43:23;0.08;;;0.08;;
21579;SDS011;10951;59.656;9.666;2022-12-29T03:45:51;0.10;;;0.10;;
21579;SDS011;10951;59.656;9.666;2022-12-29T03:48:18;0.45;;;0.45;;
21579;SDS011;10951;59.656;9.666;2022-12-29T03:50:46;0.10;;;0.10;;
21579;SDS011;10951;59.656;9.666;2022-12-29T03:53:14;0.10;;;0.10;;
21579;SDS011;10951;59.656;9.666;2022-12-29T03:55:41;0.10;;;0.10;;
21579;SDS011;10951;59.656;9.666;2022-12-29T03:58:08;0.10;;;0.10;;
21579;SDS011;10951;59.656;9.666;2022-12-29T04:00:53;0.20;;;0.20;;
21579;SDS011;10951;59.656;9.666;2022-12-29T04:03:21;0.10;;;0.10;;
21579;SDS011;10951;59.656;9.666;2022-12-29T04:05:49;0.10;;;0.10;;
21579;SDS011;10951;59.656;9.666;2022-12-29T04:08:16;0.10;;;0.10;;
21579;SDS011;10951;59.656;9.666;2022-12-29T04:10:43;0.10;;;0.10;;
21579;SDS011;10951;59.656;9.666;2022-12-29T04:13:12;0.03;;;0.03;;
21579;SDS011;10951;59.656;9.666;2022-12-29T04:15:39;0.10;;;0.10;;
21579;SDS011;10951;59.656;9.666;2022-12-29T04:18:07;0.10;;;0.10;;
21579;SDS011;10951;59.656;9.666;2022-12-29T04:20:34;0.10;;;0.10;;
21579;SDS011;10951;59.656;9.666;2022-12-29T04:23:20;0.20;;;0.20;;
21579;SDS011;10951;59.656;9.666;2022-12-29T04:25:46;0.10;;;0.10;;
21579;SDS011;10951;59.656;9.666;2022-12-29T04:28:15;4.85;;;1.85;;
21579;SDS011;10951;59.656;9.666;2022-12-29T04:30:49;0.10;;;0.10;;
21579;SDS011;10951;59.656;9.666;2022-12-29T04:33:19;0.10;;;0.10;;
21579;SDS011;10951;59.656;9.666;2022-12-29T04:38:14;0.10;;;0.10;;
21579;SDS011;10951;59.656;9.666;2022-12-29T04:40:42;1.08;;;1.08;;
21579;SDS011;10951;59.656;9.666;2022-12-29T04:43:10;0.10;;;0.10;;
21579;SDS011;10951;59.656;9.666;2022-12-29T04:45:56;0.10;;;0.10;;
21579;SDS011;10951;59.656;9.666;2022-12-29T04:48:28;0.10;;;0.10;;
21579;SDS011;10951;59.656;9.666;2022-12-29T04:51:19;0.10;;;0.10;;
21579;SDS011;10951;59.656;9.666;2022-12-29T04:53:46;0.23;;;0.23;;
21579;SDS011;10951;59.656;9.666;2022-12-29T04:56:13;0.10;;;0.10;;
21579;SDS011;10951;59.656;9.666;2022-12-29T04:58:41;0.10;;;0.10;;
21579;SDS011;10951;59.656;9.666;2022-12-29T05:01:08;0.10;;;0.10;;
21579;SDS011;10951;59.656;9.666;2022-12-29T05:03:35;0.20;;;0.20;;
21579;SDS011;10951;59.656;9.666;2022-12-29T05:06:02;0.10;;;0.10;;
21579;SDS011;10951;59.656;9.666;2022-12-29T05:08:29;0.10;;;0.10;;
21579;SDS011;10951;59.656;9.666;2022-12-29T05:10:58;0.10;;;0.10;;
21579;SDS011;10951;59.656;9.666;2022-12-29T05:13:26;0.10;;;0.10;;
21579;SDS011;10951;59.656;9.666;2022-12-29T05:15:53;0.10;;;0.10;;
21579;SDS011;10951;59.656;9.666;2022-12-29T05:18:22;0.10;;;0.10;;
21579;SDS011;10951;59.656;9.666;2022-12-29T05:20:49;0.10;;;0.10;;
21579;SDS011;10951;59.656;9.666;2022-12-29T05:23:18;0.10;;;0.10;;
21579;SDS011;10951;59.656;9.666;2022-12-29T05:25:53;0.10;;;0.10;;
21579;SDS011;10951;59.656;9.666;2022-12-29T05:28:27;0.10;;;0.10;;
21579;SDS011;10951;59.656;9.666;2022-12-29T05:31:04;0.10;;;0.10;;
21579;SDS011;10951;59.656;9.666;2022-12-29T05:33:31;0.00;;;0.00;;
21579;SDS011;10951;59.656;9.666;2022-12-29T05:36:05;0.10;;;0.10;;
21579;SDS011;10951;59.656;9.666;2022-12-29T05:38:34;0.10;;;0.10;;
21579;SDS011;10951;59.656;9.666;2022-12-29T05:41:01;0.10;;;0.10;;
21579;SDS011;10951;59.656;9.666;2022-12-29T05:43:40;0.10;;;0.10;;
21579;SDS011;10951;59.656;9.666;2022-12-29T05:46:30;0.10;;;0.10;;
21579;SDS011;10951;59.656;9.666;2022-12-29T05:49:24;0.10;;;0.10;;
21579;SDS011;10951;59.656;9.666;2022-12-29T05:52:07;0.10;;;0.10;;
21579;SDS011;10951;59.656;9.666;2022-12-29T05:54:34;0.10;;;0.10;;
21579;SDS011;10951;59.656;9.666;2022-12-29T05:57:05;0.10;;;0.10;;
21579;SDS011;10951;59.656;9.666;2022-12-29T05:59:32;0.10;;;0.10;;
21579;SDS011;10951;59.656;9.666;2022-12-29T06:02:00;0.10;;;0.10;;
21579;SDS011;10951;59.656;9.666;2022-12-29T06:04:27;0.30;;;0.30;;
21579;SDS011;10951;59.656;9.666;2022-12-29T06:06:54;0.10;;;0.10;;
21579;SDS011;10951;59.656;9.666;2022-12-29T06:09:31;1.27;;;0.68;;
21579;SDS011;10951;59.656;9.666;2022-12-29T06:11:58;0.10;;;0.10;;
21579;SDS011;10951;59.656;9.666;2022-12-29T06:14:25;0.10;;;0.10;;
21579;SDS011;10951;59.656;9.666;2022-12-29T06:16:52;0.10;;;0.10;;
21579;SDS011;10951;59.656;9.666;2022-12-29T06:21:47;0.10;;;0.10;;
21579;SDS011;10951;59.656;9.666;2022-12-29T06:24:14;0.10;;;0.10;;
21579;SDS011;10951;59.656;9.666;2022-12-29T06:26:41;0.10;;;0.10;;
21579;SDS011;10951;59.656;9.666;2022-12-29T06:29:08;0.20;;;0.20;;
21579;SDS011;10951;59.656;9.666;2022-12-29T06:31:35;0.10;;;0.10;;
21579;SDS011;10951;59.656;9.666;2022-12-29T06:34:03;0.10;;;0.10;;
21579;SDS011;10951;59.656;9.666;2022-12-29T06:36:35;2.13;;;1.95;;
21579;SDS011;10951;59.656;9.666;2022-12-29T06:39:03;0.10;;;0.10;;
21579;SDS011;10951;59.656;9.666;2022-12-29T06:41:30;0.10;;;0.10;;
21579;SDS011;10951;59.656;9.666;2022-12-29T06:44:10;0.10;;;0.10;;
21579;SDS011;10951;59.656;9.666;2022-12-29T06:46:53;0.10;;;0.10;;
21579;SDS011;10951;59.656;9.666;2022-12-29T06:49:21;0.10;;;0.10;;
21579;SDS011;10951;59.656;9.666;2022-12-29T06:51:48;0.10;;;0.10;;
21579;SDS011;10951;59.656;9.666;2022-12-29T06:54:14;0.10;;;0.10;;
21579;SDS011;10951;59.656;9.666;2022-12-29T06:56:41;0.10;;;0.10;;
21579;SDS011;10951;59.656;9.666;2022-12-29T06:59:09;0.17;;;0.17;;
21579;SDS011;10951;59.656;9.666;2022-12-29T07:01:35;0.10;;;0.10;;
21579;SDS011;10951;59.656;9.666;2022-12-29T07:04:03;0.10;;;0.10;;
21579;SDS011;10951;59.656;9.666;2022-12-29T07:06:30;0.10;;;0.10;;
21579;SDS011;10951;59.656;9.666;2022-12-29T07:08:57;0.10;;;0.10;;
21579;SDS011;10951;59.656;9.666;2022-12-29T07:11:24;0.10;;;0.10;;
21579;SDS011;10951;59.656;9.666;2022-12-29T07:13:51;0.10;;;0.10;;
21579;SDS011;10951;59.656;9.666;2022-12-29T07:16:18;0.10;;;0.10;;
21579;SDS011;10951;59.656;9.666;2022-12-29T07:18:45;0.53;;;0.53;;
21579;SDS011;10951;59.656;9.666;2022-12-29T07:21:12;0.30;;;0.30;;
21579;SDS011;10951;59.656;9.666;2022-12-29T07:23:39;0.20;;;0.20;;
21579;SDS011;10951;59.656;9.666;2022-12-29T07:26:07;0.10;;;0.10;;
21579;SDS011;10951;59.656;9.666;2022-12-29T07:28:36;0.10;;;0.10;;
21579;SDS011;10951;59.656;9.666;2022-12-29T07:31:04;0.10;;;0.10;;
21579;SDS011;10951;59.656;9.666;2022-12-29T07:33:32;0.10;;;0.10;;
21579;SDS011;10951;59.656;9.666;2022-12-29T07:35:59;0.10;;;0.10;;
21579;SDS011;10951;59.656;9.666;2022-12-29T07:38:26;0.00;;;0.00;;
21579;SDS011;10951;59.656;9.666;2022-12-29T07:40:56;0.10;;;0.10;;
21579;SDS011;10951;59.656;9.666;2022-12-29T07:43:24;0.65;;;0.65;;
21579;SDS011;10951;59.656;9.666;2022-12-29T07:46:19;1.45;;;0.95;;
21579;SDS011;10951;59.656;9.666;2022-12-29T07:49:05;0.10;;;0.10;;
21579;SDS011;10951;59.656;9.666;2022-12-29T07:51:33;0.25;;;0.25;;
21579;SDS011;10951;59.656;9.666;2022-12-29T07:53:59;0.10;;;0.10;;
21579;SDS011;10951;59.656;9.666;2022-12-29T07:56:27;0.10;;;0.10;;
21579;SDS011;10951;59.656;9.666;2022-12-29T07:58:53;0.10;;;0.10;;
21579;SDS011;10951;59.656;9.666;2022-12-29T08:01:20;0.10;;;0.10;;
21579;SDS011;10951;59.656;9.666;2022-12-29T08:03:49;0.28;;;0.28;;
21579;SDS011;10951;59.656;9.666;2022-12-29T08:06:22;0.10;;;0.10;;
21579;SDS011;10951;59.656;9.666;2022-12-29T08:08:49;0.38;;;0.38;;
21579;SDS011;10951;59.656;9.666;2022-12-29T08:11:16;0.10;;;0.10;;
21579;SDS011;10951;59.656;9.666;2022-12-29T08:13:43;0.10;;;0.10;;
21579;SDS011;10951;59.656;9.666;2022-12-29T08:16:10;0.10;;;0.10;;
21579;SDS011;10951;59.656;9.666;2022-12-29T08:18:37;0.10;;;0.10;;
21579;SDS011;10951;59.656;9.666;2022-12-29T08:21:04;0.10;;;0.10;;
21579;SDS011;10951;59.656;9.666;2022-12-29T08:26:02;0.10;;;0.10;;
21579;SDS011;10951;59.656;9.666;2022-12-29T08:28:30;0.10;;;0.10;;
21579;SDS011;10951;59.656;9.666;2022-12-29T08:30:59;0.10;;;0.10;;
21579;SDS011;10951;59.656;9.666;2022-12-29T08:33:28;0.57;;;0.57;;
21579;SDS011;10951;59.656;9.666;2022-12-29T08:35:59;0.32;;;0.32;;
21579;SDS011;10951;59.656;9.666;2022-12-29T08:38:30;0.10;;;0.10;;
21579;SDS011;10951;59.656;9.666;2022-12-29T08:40:58;0.20;;;0.20;;
21579;SDS011;10951;59.656;9.666;2022-12-29T08:43:27;0.10;;;0.10;;
21579;SDS011;10951;59.656;9.666;2022-12-29T08:45:54;0.47;;;0.47;;
21579;SDS011;10951;59.656;9.666;2022-12-29T08:48:23;0.10;;;0.10;;
21579;SDS011;10951;59.656;9.666;2022-12-29T08:50:50;0.13;;;0.13;;
21579;SDS011;10951;59.656;9.666;2022-12-29T08:53:17;0.20;;;0.20;;
21579;SDS011;10951;59.656;9.666;2022-12-29T08:55:45;0.10;;;0.10;;
21579;SDS011;10951;59.656;9.666;2022-12-29T08:58:14;0.20;;;0.20;;
21579;SDS011;10951;59.656;9.666;2022-12-29T09:00:43;0.10;;;0.10;;
21579;SDS011;10951;59.656;9.666;2022-12-29T09:03:10;0.20;;;0.20;;
21579;SDS011;10951;59.656;9.666;2022-12-29T09:05:37;0.95;;;0.95;;
21579;SDS011;10951;59.656;9.666;2022-12-29T09:08:04;0.30;;;0.30;;
21579;SDS011;10951;59.656;9.666;2022-12-29T09:10:31;0.17;;;0.17;;
21579;SDS011;10951;59.656;9.666;2022-12-29T09:12:58;0.30;;;0.30;;
21579;SDS011;10951;59.656;9.666;2022-12-29T09:15:25;0.20;;;0.20;;
21579;SDS011;10951;59.656;9.666;2022-12-29T09:17:52;0.20;;;0.20;;
21579;SDS011;10951;59.656;9.666;2022-12-29T09:20:19;0.10;;;0.10;;
21579;SDS011;10951;59.656;9.666;2022-12-29T09:22:46;0.10;;;0.10;;
21579;SDS011;10951;59.656;9.666;2022-12-29T09:25:13;0.30;;;0.30;;
21579;SDS011;10951;59.656;9.666;2022-12-29T09:27:41;0.10;;;0.10;;
21579;SDS011;10951;59.656;9.666;2022-12-29T09:30:09;0.10;;;0.10;;
21579;SDS011;10951;59.656;9.666;2022-12-29T09:32:38;0.10;;;0.10;;
21579;SDS011;10951;59.656;9.666;2022-12-29T09:35:10;0.10;;;0.10;;
21579;SDS011;10951;59.656;9.666;2022-12-29T09:37:37;0.10;;;0.10;;
21579;SDS011;10951;59.656;9.666;2022-12-29T09:40:04;0.20;;;0.20;;
21579;SDS011;10951;59.656;9.666;2022-12-29T09:42:39;0.10;;;0.10;;
21579;SDS011;10951;59.656;9.666;2022-12-29T09:45:14;0.10;;;0.10;;
21579;SDS011;10951;59.656;9.666;2022-12-29T09:47:42;0.20;;;0.20;;
21579;SDS011;10951;59.656;9.666;2022-12-29T09:50:20;0.38;;;0.38;;
21579;SDS011;10951;59.656;9.666;2022-12-29T09:52:58;0.30;;;0.30;;
21579;SDS011;10951;59.656;9.666;2022-12-29T09:55:38;0.10;;;0.10;;
21579;SDS011;10951;59.656;9.666;2022-12-29T09:58:20;6.00;;;0.68;;
21579;SDS011;10951;59.656;9.666;2022-12-29T10:01:01;0.20;;;0.20;;
21579;SDS011;10951;59.656;9.666;2022-12-29T10:25:34;0.10;;;0.10;;
21579;SDS011;10951;59.656;9.666;2022-12-29T10:28:05;0.30;;;0.30;;
21579;SDS011;10951;59.656;9.666;2022-12-29T10:31:03;0.32;;;0.32;;
21579;SDS011;10951;59.656;9.666;2022-12-29T10:33:36;2.15;;;0.82;;
21579;SDS011;10951;59.656;9.666;2022-12-29T10:36:12;1.45;;;1.38;;
21579;SDS011;10951;59.656;9.666;2022-12-29T10:38:48;0.10;;;0.10;;
21579;SDS011;10951;59.656;9.666;2022-12-29T10:41:25;0.20;;;0.20;;
21579;SDS011;10951;59.656;9.666;2022-12-29T10:44:16;0.20;;;0.20;;
21579;SDS011;10951;59.656;9.666;2022-12-29T10:46:44;0.10;;;0.10;;
21579;SDS011;10951;59.656;9.666;2022-12-29T10:49:23;0.10;;;0.10;;
21579;SDS011;10951;59.656;9.666;2022-12-29T10:51:52;0.10;;;0.10;;
21579;SDS011;10951;59.656;9.666;2022-12-29T10:54:26;0.22;;;0.22;;
21579;SDS011;10951;59.656;9.666;2022-12-29T10:57:07;0.50;;;0.50;;
21579;SDS011;10951;59.656;9.666;2022-12-29T10:59:39;0.20;;;0.20;;
21579;SDS011;10951;59.656;9.666;2022-12-29T11:07:18;0.20;;;0.20;;
21579;SDS011;10951;59.656;9.666;2022-12-29T11:09:52;0.20;;;0.20;;
21579;SDS011;10951;59.656;9.666;2022-12-29T11:15:28;0.80;;;0.80;;
21579;SDS011;10951;59.656;9.666;2022-12-29T11:17:48;0.15;;;0.15;;
21579;SDS011;10951;59.656;9.666;2022-12-29T11:20:38;0.10;;;0.10;;
21579;SDS011;10951;59.656;9.666;2022-12-29T11:23:21;0.43;;;0.43;;
21579;SDS011;10951;59.656;9.666;2022-12-29T11:26:07;0.20;;;0.20;;
21579;SDS011;10951;59.656;9.666;2022-12-29T11:28:42;0.10;;;0.10;;
21579;SDS011;10951;59.656;9.666;2022-12-29T11:31:15;0.40;;;0.40;;
21579;SDS011;10951;59.656;9.666;2022-12-29T11:33:43;1.30;;;1.20;;
21579;SDS011;10951;59.656;9.666;2022-12-29T11:36:15;0.83;;;0.83;;
21579;SDS011;10951;59.656;9.666;2022-12-29T11:38:50;0.20;;;0.20;;
21579;SDS011;10951;59.656;9.666;2022-12-29T11:41:28;0.15;;;0.15;;
21579;SDS011;10951;59.656;9.666;2022-12-29T11:43:57;0.10;;;0.10;;
21579;SDS011;10951;59.656;9.666;2022-12-29T11:46:27;0.90;;;0.85;;
21579;SDS011;10951;59.656;9.666;2022-12-29T11:48:58;0.20;;;0.20;;
21579;SDS011;10951;59.656;9.666;2022-12-29T11:51:27;0.25;;;0.25;;
21579;SDS011;10951;59.656;9.666;2022-12-29T11:54:05;0.20;;;0.20;;
21579;SDS011;10951;59.656;9.666;2022-12-29T12:01:56;0.38;;;0.38;;
21579;SDS011;10951;59.656;9.666;2022-12-29T12:04:35;0.10;;;0.10;;
21579;SDS011;10951;59.656;9.666;2022-12-29T12:09:50;0.17;;;0.17;;
21579;SDS011;10951;59.656;9.666;2022-12-29T12:12:41;0.63;;;0.30;;
21579;SDS011;10951;59.656;9.666;2022-12-29T12:15:15;0.20;;;0.20;;
21579;SDS011;10951;59.656;9.666;2022-12-29T12:18:32;0.20;;;0.20;;
21579;SDS011;10951;59.656;9.666;2022-12-29T12:20:57;1.40;;;1.30;;
21579;SDS011;10951;59.656;9.666;2022-12-29T12:26:21;0.30;;;0.30;;
21579;SDS011;10951;59.656;9.666;2022-12-29T12:34:36;0.20;;;0.20;;
21579;SDS011;10951;59.656;9.666;2022-12-29T12:40:11;0.20;;;0.20;;
21579;SDS011;10951;59.656;9.666;2022-12-29T12:48:50;0.25;;;0.25;;
21579;SDS011;10951;59.656;9.666;2022-12-29T12:51:33;0.20;;;0.20;;
21579;SDS011;10951;59.656;9.666;2022-12-29T13:00:07;0.20;;;0.20;;
21579;SDS011;10951;59.656;9.666;2022-12-29T13:02:47;0.20;;;0.20;;
21579;SDS011;10951;59.656;9.666;2022-12-29T13:08:37;0.25;;;0.25;;
21579;SDS011;10951;59.656;9.666;2022-12-29T13:14:11;0.20;;;0.20;;
21579;SDS011;10951;59.656;9.666;2022-12-29T13:22:08;0.50;;;0.50;;
21579;SDS011;10951;59.656;9.666;2022-12-29T13:30:18;0.63;;;0.63;;
21579;SDS011;10951;59.656;9.666;2022-12-29T13:38:35;0.45;;;0.45;;
21579;SDS011;10951;59.656;9.666;2022-12-29T13:41:14;0.32;;;0.32;;
21579;SDS011;10951;59.656;9.666;2022-12-29T13:43:43;0.77;;;0.77;;
21579;SDS011;10951;59.656;9.666;2022-12-29T13:46:14;0.75;;;0.75;;
21579;SDS011;10951;59.656;9.666;2022-12-29T13:48:49;0.20;;;0.20;;
21579;SDS011;10951;59.656;9.666;2022-12-29T13:51:21;0.30;;;0.30;;
21579;SDS011;10951;59.656;9.666;2022-12-29T13:54:00;0.50;;;0.50;;
21579;SDS011;10951;59.656;9.666;2022-12-29T13:56:47;0.30;;;0.30;;
21579;SDS011;10951;59.656;9.666;2022-12-29T13:59:26;0.63;;;0.63;;
21579;SDS011;10951;59.656;9.666;2022-12-29T14:07:49;0.17;;;0.17;;
21579;SDS011;10951;59.656;9.666;2022-12-29T14:10:28;0.43;;;0.43;;
21579;SDS011;10951;59.656;9.666;2022-12-29T14:13:13;0.50;;;0.50;;
21579;SDS011;10951;59.656;9.666;2022-12-29T14:15:44;0.30;;;0.30;;
21579;SDS011;10951;59.656;9.666;2022-12-29T14:18:22;0.20;;;0.20;;
21579;SDS011;10951;59.656;9.666;2022-12-29T14:23:26;0.20;;;0.20;;
21579;SDS011;10951;59.656;9.666;2022-12-29T14:25:55;0.25;;;0.25;;
21579;SDS011;10951;59.656;9.666;2022-12-29T14:28:27;0.28;;;0.28;;
21579;SDS011;10951;59.656;9.666;2022-12-29T14:30:56;0.40;;;0.40;;
21579;SDS011;10951;59.656;9.666;2022-12-29T14:33:29;0.43;;;0.43;;
21579;SDS011;10951;59.656;9.666;2022-12-29T14:36:59;0.52;;;0.52;;
21579;SDS011;10951;59.656;9.666;2022-12-29T14:39:00;0.47;;;0.25;;
21579;SDS011;10951;59.656;9.666;2022-12-29T14:41:29;0.20;;;0.20;;
21579;SDS011;10951;59.656;9.666;2022-12-29T14:44:00;0.22;;;0.22;;
21579;SDS011;10951;59.656;9.666;2022-12-29T14:46:46;0.22;;;0.22;;
21579;SDS011;10951;59.656;9.666;2022-12-29T14:49:22;0.20;;;0.20;;
21579;SDS011;10951;59.656;9.666;2022-12-29T14:51:53;0.20;;;0.20;;
21579;SDS011;10951;59.656;9.666;2022-12-29T14:57:05;0.40;;;0.40;;
21579;SDS011;10951;59.656;9.666;2022-12-29T14:59:37;0.35;;;0.35;;
21579;SDS011;10951;59.656;9.666;2022-12-29T15:02:07;0.90;;;0.90;;
21579;SDS011;10951;59.656;9.666;2022-12-29T15:04:43;0.20;;;0.20;;
21579;SDS011;10951;59.656;9.666;2022-12-29T15:07:10;0.20;;;0.20;;
21579;SDS011;10951;59.656;9.666;2022-12-29T15:09:40;0.35;;;0.35;;
21579;SDS011;10951;59.656;9.666;2022-12-29T15:12:35;10.23;;;1.08;;
21579;SDS011;10951;59.656;9.666;2022-12-29T15:15:13;0.32;;;0.32;;
21579;SDS011;10951;59.656;9.666;2022-12-29T15:17:45;0.40;;;0.40;;
21579;SDS011;10951;59.656;9.666;2022-12-29T15:23:09;1.10;;;0.95;;
21579;SDS011;10951;59.656;9.666;2022-12-29T15:25:36;0.50;;;0.50;;
21579;SDS011;10951;59.656;9.666;2022-12-29T15:28:22;0.40;;;0.40;;
21579;SDS011;10951;59.656;9.666;2022-12-29T15:30:54;0.22;;;0.22;;
21579;SDS011;10951;59.656;9.666;2022-12-29T15:33:23;0.40;;;0.40;;
21579;SDS011;10951;59.656;9.666;2022-12-29T15:35:53;0.50;;;0.50;;
21579;SDS011;10951;59.656;9.666;2022-12-29T15:38:25;0.65;;;0.65;;
21579;SDS011;10951;59.656;9.666;2022-12-29T15:41:05;2.35;;;2.25;;
21579;SDS011;10951;59.656;9.666;2022-12-29T15:46:33;1.13;;;1.08;;
21579;SDS011;10951;59.656;9.666;2022-12-29T15:49:03;0.98;;;0.95;;
21579;SDS011;10951;59.656;9.666;2022-12-29T15:51:36;6.15;;;1.58;;
21579;SDS011;10951;59.656;9.666;2022-12-29T15:54:05;2.15;;;2.05;;
21579;SDS011;10951;59.656;9.666;2022-12-29T15:56:38;0.50;;;0.50;;
21579;SDS011;10951;59.656;9.666;2022-12-29T15:59:23;0.57;;;0.57;;
21579;SDS011;10951;59.656;9.666;2022-12-29T16:01:55;2.65;;;1.75;;
21579;SDS011;10951;59.656;9.666;2022-12-29T16:04:27;2.35;;;2.20;;
21579;SDS011;10951;59.656;9.666;2022-12-29T16:10:04;1.10;;;1.05;;
21579;SDS011;10951;59.656;9.666;2022-12-29T16:12:33;1.90;;;1.80;;
21579;SDS011;10951;59.656;9.666;2022-12-29T16:15:03;2.65;;;2.47;;
21579;SDS011;10951;59.656;9.666;2022-12-29T16:17:33;2.25;;;2.00;;
21579;SDS011;10951;59.656;9.666;2022-12-29T16:20:19;2.55;;;2.30;;
21579;SDS011;10951;59.656;9.666;2022-12-29T16:22:53;1.17;;;1.17;;
21579;SDS011;10951;59.656;9.666;2022-12-29T16:25:32;1.42;;;1.33;;
21579;SDS011;10951;59.656;9.666;2022-12-29T16:28:13;0.60;;;0.60;;
21579;SDS011;10951;59.656;9.666;2022-12-29T16:30:43;0.80;;;0.73;;
21579;SDS011;10951;59.656;9.666;2022-12-29T16:33:32;0.93;;;0.93;;
21579;SDS011;10951;59.656;9.666;2022-12-29T16:36:32;0.35;;;0.35;;
21579;SDS011;10951;59.656;9.666;2022-12-29T16:41:53;1.05;;;1.02;;
21579;SDS011;10951;59.656;9.666;2022-12-29T16:44:25;1.00;;;1.00;;
21579;SDS011;10951;59.656;9.666;2022-12-29T16:47:01;1.80;;;1.70;;
21579;SDS011;10951;59.656;9.666;2022-12-29T16:49:50;0.45;;;0.45;;
21579;SDS011;10951;59.656;9.666;2022-12-29T16:52:23;4.72;;;2.55;;
21579;SDS011;10951;59.656;9.666;2022-12-29T16:54:56;0.47;;;0.47;;
21579;SDS011;10951;59.656;9.666;2022-12-29T16:57:28;0.52;;;0.52;;
21579;SDS011;10951;59.656;9.666;2022-12-29T16:59:59;1.38;;;1.35;;
21579;SDS011;10951;59.656;9.666;2022-12-29T17:02:29;1.20;;;1.20;;
21579;SDS011;10951;59.656;9.666;2022-12-29T17:04:58;1.42;;;1.38;;
21579;SDS011;10951;59.656;9.666;2022-12-29T17:07:26;1.42;;;1.27;;
21579;SDS011;10951;59.656;9.666;2022-12-29T17:09:54;0.90;;;0.90;;
21579;SDS011;10951;59.656;9.666;2022-12-29T17:12:27;3.55;;;2.92;;
21579;SDS011;10951;59.656;9.666;2022-12-29T17:14:56;3.30;;;2.00;;
21579;SDS011;10951;59.656;9.666;2022-12-29T17:17:32;1.85;;;1.75;;
21579;SDS011;10951;59.656;9.666;2022-12-29T17:20:14;0.80;;;0.80;;
21579;SDS011;10951;59.656;9.666;2022-12-29T17:22:43;1.65;;;1.55;;
21579;SDS011;10951;59.656;9.666;2022-12-29T17:25:11;1.23;;;1.23;;
21579;SDS011;10951;59.656;9.666;2022-12-29T17:30:26;5.60;;;2.97;;
21579;SDS011;10951;59.656;9.666;2022-12-29T17:35:30;1.77;;;1.52;;
21579;SDS011;10951;59.656;9.666;2022-12-29T17:37:57;0.63;;;0.63;;
21579;SDS011;10951;59.656;9.666;2022-12-29T17:40:26;1.77;;;1.67;;
21579;SDS011;10951;59.656;9.666;2022-12-29T17:42:55;1.60;;;1.48;;
21579;SDS011;10951;59.656;9.666;2022-12-29T17:45:24;2.40;;;2.22;;
21579;SDS011;10951;59.656;9.666;2022-12-29T17:47:56;2.83;;;1.85;;
21579;SDS011;10951;59.656;9.666;2022-12-29T17:50:27;2.70;;;2.50;;
21579;SDS011;10951;59.656;9.666;2022-12-29T17:53:05;0.75;;;0.75;;
21579;SDS011;10951;59.656;9.666;2022-12-29T17:55:36;0.60;;;0.60;;
21579;SDS011;10951;59.656;9.666;2022-12-29T17:58:10;1.58;;;1.58;;